createdAt,value
2022-09-11T00:01:14.555Z,14.75
2022-09-11T00:03:43.295Z,15.52
2022-09-11T00:06:13.373Z,15.40
2022-09-11T00:08:41.395Z,15.05
2022-09-11T00:11:17.657Z,15.25
2022-09-11T00:13:50.226Z,14.02
2022-09-11T00:16:28.713Z,15.55
2022-09-11T00:18:58.120Z,14.80
2022-09-11T00:21:25.474Z,14.35
2022-09-11T00:23:52.248Z,14.50
2022-09-11T00:26:19.543Z,15.40
2022-09-11T00:28:46.669Z,16.23
2022-09-11T00:31:16.898Z,15.93
2022-09-11T00:33:44.835Z,18.25
2022-09-11T00:36:17.452Z,17.05
2022-09-11T00:38:46.357Z,20.05
2022-09-11T00:41:17.141Z,19.67
2022-09-11T00:43:52.896Z,18.23
2022-09-11T00:46:21.003Z,20.92
2022-09-11T00:48:50.702Z,19.05
2022-09-11T00:51:26.719Z,17.15
2022-09-11T00:53:56.400Z,17.48
2022-09-11T00:56:26.386Z,16.43
2022-09-11T00:58:55.687Z,18.52
2022-09-11T01:01:22.358Z,17.25
2022-09-11T01:03:49.225Z,18.00
2022-09-11T01:06:16.363Z,17.52
2022-09-11T01:08:43.748Z,17.73
2022-09-11T01:11:21.125Z,17.23
2022-09-11T01:14:19.971Z,17.55
2022-09-11T01:16:56.967Z,17.90
2022-09-11T01:20:06.534Z,17.98
2022-09-11T01:22:51.880Z,16.97
2022-09-11T01:25:28.029Z,16.13
2022-09-11T01:27:59.012Z,17.13
2022-09-11T01:30:35.582Z,17.38
2022-09-11T01:33:23.070Z,16.70
2022-09-11T01:36:14.140Z,16.37
2022-09-11T01:39:00.823Z,16.95
2022-09-11T01:41:30.109Z,17.98
2022-09-11T01:44:12.505Z,17.73
2022-09-11T01:46:44.344Z,18.48
2022-09-11T01:49:17.187Z,17.57
2022-09-11T01:51:44.842Z,17.63
2022-09-11T01:54:17.112Z,17.95
2022-09-11T01:56:52.433Z,16.83
2022-09-11T01:59:27.903Z,17.33
2022-09-11T02:02:07.884Z,17.37
2022-09-11T02:04:41.112Z,17.50
2022-09-11T02:07:19.827Z,17.35
2022-09-11T02:10:00.091Z,17.08
2022-09-11T02:12:33.614Z,17.02
2022-09-11T02:15:00.497Z,16.80
2022-09-11T02:17:52.325Z,17.23
2022-09-11T02:20:21.027Z,16.65
2022-09-11T02:22:49.086Z,17.50
2022-09-11T02:25:16.278Z,18.50
2022-09-11T02:27:42.874Z,17.47
2022-09-11T02:30:10.381Z,17.20
2022-09-11T02:32:40.971Z,17.33
2022-09-11T02:35:09.193Z,17.00
2022-09-11T02:37:59.240Z,18.42
2022-09-11T02:40:56.416Z,17.27
2022-09-11T02:44:27.739Z,17.65
2022-09-11T02:47:15.008Z,18.23
2022-09-11T02:50:13.870Z,16.88
2022-09-11T02:53:10.135Z,16.48
2022-09-11T02:55:56.742Z,17.67
2022-09-11T02:58:28.642Z,17.27
2022-09-11T03:01:00.462Z,16.52
2022-09-11T03:03:27.244Z,16.67
2022-09-11T03:05:54.257Z,17.30
2022-09-11T03:08:20.841Z,17.43
2022-09-11T03:10:49.967Z,18.55
2022-09-11T03:13:16.622Z,17.08
2022-09-11T03:15:46.044Z,16.58
2022-09-11T03:18:14.552Z,18.70
2022-09-11T03:20:44.981Z,20.23
2022-09-11T03:23:11.508Z,18.17
2022-09-11T03:25:38.041Z,22.90
2022-09-11T03:28:04.702Z,24.55
2022-09-11T03:30:32.296Z,23.30
2022-09-11T03:33:00.616Z,20.57
2022-09-11T03:35:27.979Z,20.10
2022-09-11T03:37:55.583Z,19.73
2022-09-11T03:40:23.019Z,21.13
2022-09-11T03:42:49.634Z,19.45
2022-09-11T03:45:16.374Z,20.27
2022-09-11T03:47:43.057Z,18.83
2022-09-11T03:50:10.742Z,18.20
2022-09-11T03:52:37.820Z,18.50
2022-09-11T03:55:06.027Z,20.90
2022-09-11T03:57:41.542Z,18.00
2022-09-11T04:00:10.028Z,19.55
2022-09-11T04:02:36.552Z,18.95
2022-09-11T04:05:04.465Z,19.80
2022-09-11T04:07:31.080Z,17.75
2022-09-11T04:09:58.392Z,18.50
2022-09-11T04:12:25.695Z,17.75
2022-09-11T04:14:52.607Z,18.73
2022-09-11T04:17:19.161Z,18.33
2022-09-11T04:19:45.779Z,19.00
2022-09-11T04:22:12.282Z,19.37
2022-09-11T04:24:38.886Z,17.88
2022-09-11T04:27:05.666Z,17.95
2022-09-11T04:29:33.827Z,19.05
2022-09-11T04:32:00.310Z,17.85
2022-09-11T04:34:26.812Z,18.23
2022-09-11T04:36:55.909Z,18.50
2022-09-11T04:39:22.807Z,18.67
2022-09-11T04:41:49.465Z,18.67
2022-09-11T04:44:16.024Z,17.48
2022-09-11T04:46:42.977Z,16.97
2022-09-11T04:49:10.807Z,17.85
2022-09-11T04:51:39.126Z,17.55
2022-09-11T04:54:06.253Z,18.33
2022-09-11T04:56:34.858Z,16.90
2022-09-11T04:59:05.897Z,18.67
2022-09-11T05:01:34.169Z,17.52
2022-09-11T05:04:01.644Z,18.45
2022-09-11T05:06:30.844Z,17.92
2022-09-11T05:09:02.711Z,16.88
2022-09-11T05:11:32.932Z,16.93
2022-09-11T05:14:00.129Z,19.70
2022-09-11T05:16:28.652Z,20.75
2022-09-11T05:18:56.643Z,19.95
2022-09-11T05:21:26.340Z,21.10
2022-09-11T05:23:55.537Z,20.77
2022-09-11T05:26:24.943Z,22.35
2022-09-11T05:29:00.186Z,19.55
2022-09-11T05:31:28.898Z,19.25
2022-09-11T05:33:56.267Z,19.27
2022-09-11T05:36:23.803Z,16.63
2022-09-11T05:38:50.641Z,18.23
2022-09-11T05:41:17.472Z,17.38
2022-09-11T05:43:44.285Z,16.65
2022-09-11T05:46:13.414Z,16.98
2022-09-11T05:48:40.182Z,17.83
2022-09-11T05:51:12.971Z,18.02
2022-09-11T05:53:39.868Z,16.25
2022-09-11T05:56:19.886Z,17.85
2022-09-11T05:58:48.213Z,17.60
2022-09-11T06:01:19.851Z,16.57
2022-09-11T06:03:48.556Z,16.38
2022-09-11T06:06:16.713Z,16.20
2022-09-11T06:08:47.510Z,16.80
2022-09-11T06:11:16.285Z,16.80
2022-09-11T06:13:44.841Z,15.30
2022-09-11T06:16:18.098Z,16.00
2022-09-11T06:18:49.322Z,17.40
2022-09-11T06:21:20.136Z,15.75
2022-09-11T06:23:48.876Z,16.33
2022-09-11T06:26:21.391Z,15.10
2022-09-11T06:28:48.536Z,15.23
2022-09-11T06:31:17.584Z,16.20
2022-09-11T06:33:45.014Z,15.48
2022-09-11T06:36:17.537Z,14.75
2022-09-11T06:38:44.550Z,13.47
2022-09-11T06:41:14.911Z,12.73
2022-09-11T06:43:42.605Z,11.82
2022-09-11T06:46:14.554Z,11.05
2022-09-11T06:48:43.135Z,11.68
2022-09-11T06:51:15.437Z,10.37
2022-09-11T06:53:42.269Z,10.30
2022-09-11T06:56:12.988Z,9.48
2022-09-11T06:58:40.140Z,9.45
2022-09-11T07:01:10.126Z,9.80
2022-09-11T07:03:37.522Z,10.47
2022-09-11T07:06:05.945Z,10.15
2022-09-11T07:08:32.505Z,10.45
2022-09-11T07:11:06.296Z,10.27
2022-09-11T07:13:37.485Z,11.55
2022-09-11T07:16:07.972Z,11.67
2022-09-11T07:18:36.521Z,10.55
2022-09-11T07:21:23.874Z,10.95
2022-09-11T07:23:54.421Z,13.00
2022-09-11T07:26:22.286Z,12.35
2022-09-11T07:28:50.269Z,13.23
2022-09-11T07:31:21.121Z,14.07
2022-09-11T07:33:49.168Z,14.40
2022-09-11T07:36:18.767Z,13.82
2022-09-11T07:38:47.755Z,15.02
2022-09-11T07:41:15.735Z,16.27
2022-09-11T07:43:45.551Z,15.45
2022-09-11T07:46:13.002Z,14.55
2022-09-11T07:48:40.480Z,14.60
2022-09-11T07:51:09.292Z,15.80
2022-09-11T07:53:38.359Z,15.73
2022-09-11T07:56:07.091Z,15.20
2022-09-11T07:58:38.467Z,15.07
2022-09-11T08:01:06.433Z,14.23
2022-09-11T08:03:34.360Z,13.65
2022-09-11T08:06:02.671Z,13.83
2022-09-11T08:08:30.311Z,14.43
2022-09-11T08:11:04.475Z,14.77
2022-09-11T08:13:31.224Z,13.80
2022-09-11T08:15:57.783Z,13.40
2022-09-11T08:18:24.610Z,12.80
2022-09-11T08:20:51.318Z,11.27
2022-09-11T08:23:17.886Z,11.00
2022-09-11T08:25:44.611Z,11.75
2022-09-11T08:28:11.372Z,12.00
2022-09-11T08:30:40.411Z,13.47
2022-09-11T08:33:08.590Z,11.38
2022-09-11T08:35:35.656Z,10.55
2022-09-11T08:38:03.321Z,10.15
2022-09-11T08:40:31.705Z,10.85
2022-09-11T08:43:02.646Z,10.73
2022-09-11T08:45:34.821Z,10.65
2022-09-11T08:48:01.909Z,10.43
2022-09-11T08:50:35.091Z,8.30
2022-09-11T08:53:03.117Z,11.40
2022-09-11T08:55:52.526Z,10.73
2022-09-11T08:58:46.129Z,11.18
2022-09-11T09:01:37.145Z,9.25
2022-09-11T09:04:33.100Z,9.10
2022-09-11T09:07:17.576Z,6.68
2022-09-11T09:10:14.404Z,8.33
2022-09-11T09:12:58.039Z,9.80
2022-09-11T09:16:20.259Z,9.48
2022-09-11T09:18:55.212Z,8.68
2022-09-11T09:21:35.469Z,9.57
2022-09-11T09:24:08.457Z,9.33
2022-09-11T09:26:40.527Z,7.75
2022-09-11T09:29:14.740Z,9.30
2022-09-11T09:31:44.383Z,8.60
2022-09-11T09:34:18.679Z,10.57
2022-09-11T09:36:56.227Z,9.53
2022-09-11T09:39:24.052Z,11.27
2022-09-11T09:42:13.978Z,10.15
2022-09-11T09:45:13.417Z,8.93
2022-09-11T09:47:44.688Z,8.90
2022-09-11T09:50:29.230Z,8.37
2022-09-11T09:53:33.664Z,9.13
2022-09-11T09:56:01.415Z,8.82
2022-09-11T09:58:34.499Z,8.40
2022-09-11T10:01:01.225Z,8.57
2022-09-11T10:03:27.988Z,8.97
2022-09-11T10:05:56.450Z,8.23
2022-09-11T10:08:35.565Z,8.60
2022-09-11T10:11:07.441Z,9.07
2022-09-11T10:13:38.042Z,8.45
2022-09-11T10:16:19.338Z,8.97
2022-09-11T10:18:47.181Z,8.85
2022-09-11T10:21:13.876Z,6.90
2022-09-11T10:23:47.988Z,6.88
2022-09-11T10:26:21.082Z,7.20
2022-09-11T10:28:48.490Z,7.37
2022-09-11T10:31:18.852Z,5.82
2022-09-11T10:33:58.103Z,6.63
2022-09-11T10:36:27.284Z,7.97
2022-09-11T10:38:55.670Z,6.93
2022-09-11T10:41:25.690Z,6.40
2022-09-11T10:44:14.003Z,4.80
2022-09-11T10:46:42.741Z,4.25
2022-09-11T10:49:21.158Z,3.72
2022-09-11T10:52:08.979Z,3.70
2022-09-11T10:54:45.942Z,4.03
2022-09-11T10:57:45.255Z,4.40
2022-09-11T11:00:21.244Z,4.25
2022-09-11T11:02:56.126Z,4.55
2022-09-11T11:05:53.227Z,5.18
2022-09-11T11:08:31.311Z,5.87
2022-09-11T11:11:14.855Z,4.90
2022-09-11T11:14:20.588Z,5.78
2022-09-11T11:17:24.146Z,4.72
2022-09-11T11:20:22.701Z,5.10
2022-09-11T11:23:16.296Z,5.00
2022-09-11T11:26:17.389Z,4.55
2022-09-11T11:28:46.809Z,4.05
2022-09-11T11:31:51.404Z,3.83
2022-09-11T11:34:43.624Z,4.72
2022-09-11T11:37:11.733Z,4.10
2022-09-11T11:40:10.456Z,4.00
2022-09-11T11:42:46.965Z,3.95
2022-09-11T11:45:27.808Z,2.92
2022-09-11T11:47:55.627Z,3.60
2022-09-11T11:50:33.468Z,3.17
2022-09-11T11:53:24.843Z,3.80
2022-09-11T11:56:08.956Z,3.10
2022-09-11T11:58:51.623Z,3.88
2022-09-11T12:01:29.524Z,2.88
2022-09-11T12:04:16.407Z,3.40
2022-09-11T12:06:43.272Z,3.60
2022-09-11T12:09:12.569Z,3.80
2022-09-11T12:11:39.254Z,3.38
2022-09-11T12:14:07.325Z,3.40
2022-09-11T12:16:35.763Z,3.30
2022-09-11T12:19:04.868Z,3.08
2022-09-11T12:21:31.700Z,3.17
2022-09-11T12:23:58.337Z,3.33
2022-09-11T12:26:26.947Z,3.20
2022-09-11T12:29:15.895Z,2.83
2022-09-11T12:31:51.641Z,3.05
2022-09-11T12:34:47.741Z,3.15
2022-09-11T12:37:26.633Z,3.42
2022-09-11T12:40:04.437Z,3.17
2022-09-11T12:42:31.065Z,3.17
2022-09-11T12:44:59.789Z,3.00
2022-09-11T12:47:35.699Z,2.80
2022-09-11T12:50:05.171Z,2.33
2022-09-11T12:52:40.144Z,2.58
2022-09-11T12:55:27.912Z,3.00
2022-09-11T12:57:55.125Z,2.40
2022-09-11T13:00:28.214Z,2.60
2022-09-11T13:02:58.258Z,2.58
2022-09-11T13:05:40.855Z,2.50
2022-09-11T13:08:17.943Z,2.50
2022-09-11T13:10:46.787Z,2.92
2022-09-11T13:13:35.158Z,2.88
2022-09-11T13:16:25.464Z,3.08
2022-09-11T13:18:59.377Z,3.38
2022-09-11T13:21:26.666Z,2.67
2022-09-11T13:23:53.748Z,3.00
2022-09-11T13:26:27.199Z,3.22
2022-09-11T13:28:56.856Z,2.60
2022-09-11T13:31:38.359Z,2.90
2022-09-11T13:34:13.182Z,2.93
2022-09-11T13:36:40.605Z,3.08
2022-09-11T13:39:09.220Z,3.08
2022-09-11T13:41:44.455Z,2.90
2022-09-11T13:44:46.461Z,2.63
2022-09-11T13:47:31.716Z,2.87
2022-09-11T13:50:05.314Z,3.72
2022-09-11T13:52:34.680Z,2.83
2022-09-11T13:55:10.183Z,3.17
2022-09-11T13:58:00.765Z,2.80
2022-09-11T14:00:48.711Z,2.90
2022-09-11T14:03:21.556Z,2.90
2022-09-11T14:05:56.590Z,3.00
2022-09-11T14:08:36.054Z,2.83
2022-09-11T14:11:11.163Z,2.90
2022-09-11T14:14:06.426Z,3.30
2022-09-11T14:16:36.658Z,2.92
2022-09-11T14:19:13.378Z,3.13
2022-09-11T14:21:46.000Z,2.97
2022-09-11T14:24:37.055Z,3.08
2022-09-11T14:27:23.404Z,2.87
2022-09-11T14:29:55.571Z,3.50
2022-09-11T14:32:33.843Z,3.42
2022-09-11T14:35:09.339Z,3.15
2022-09-11T14:37:41.542Z,3.70
2022-09-11T14:40:16.001Z,4.07
2022-09-11T14:42:43.999Z,3.20
2022-09-11T14:45:23.141Z,2.90
2022-09-11T14:47:50.527Z,3.80
2022-09-11T14:50:17.481Z,3.28
2022-09-11T14:52:44.314Z,3.30
2022-09-11T14:55:15.914Z,3.50
2022-09-11T14:57:42.549Z,3.25
2022-09-11T15:00:10.953Z,3.28
2022-09-11T15:02:37.516Z,3.35
2022-09-11T15:05:07.110Z,4.13
2022-09-11T15:07:35.772Z,3.20
2022-09-11T15:10:02.339Z,4.45
2022-09-11T15:12:29.403Z,3.83
2022-09-11T15:14:58.479Z,3.58
2022-09-11T15:17:31.493Z,4.00
2022-09-11T15:20:00.394Z,3.97
2022-09-11T15:22:27.698Z,3.85
2022-09-11T15:24:56.113Z,3.70
2022-09-11T15:27:25.037Z,3.78
2022-09-11T15:29:51.735Z,3.70
2022-09-11T15:32:18.276Z,3.75
2022-09-11T15:34:45.349Z,3.47
2022-09-11T15:37:12.162Z,3.65
2022-09-11T15:39:38.860Z,3.47
2022-09-11T15:42:07.411Z,3.30
2022-09-11T15:44:36.296Z,3.67
2022-09-11T15:47:07.095Z,3.40
2022-09-11T15:49:40.707Z,3.40
2022-09-11T15:52:07.419Z,3.17
2022-09-11T15:54:33.992Z,3.27
2022-09-11T15:57:00.737Z,3.30
2022-09-11T15:59:27.433Z,3.92
2022-09-11T16:01:54.046Z,3.80
2022-09-11T16:04:21.692Z,3.40
2022-09-11T16:06:49.400Z,3.43
2022-09-11T16:09:21.201Z,3.63
2022-09-11T16:11:48.952Z,3.63
2022-09-11T16:14:30.206Z,3.33
2022-09-11T16:16:58.007Z,3.85
2022-09-11T16:19:27.920Z,3.97
2022-09-11T16:22:00.521Z,3.35
2022-09-11T16:24:28.883Z,3.67
2022-09-11T16:26:56.025Z,3.45
2022-09-11T16:29:51.173Z,3.50
2022-09-11T16:32:28.273Z,3.40
2022-09-11T16:34:56.913Z,3.45
2022-09-11T16:37:23.753Z,3.35
2022-09-11T16:39:50.813Z,3.03
2022-09-11T16:42:21.771Z,3.75
2022-09-11T16:44:49.457Z,3.13
2022-09-11T16:47:17.367Z,3.97
2022-09-11T16:50:05.816Z,3.40
2022-09-11T16:52:31.163Z,3.08
2022-09-11T16:54:57.784Z,3.50
2022-09-11T16:57:24.394Z,3.30
2022-09-11T16:59:50.985Z,3.00
2022-09-11T17:02:17.690Z,2.70
2022-09-11T17:04:44.299Z,3.50
2022-09-11T17:07:10.947Z,2.90
2022-09-11T17:09:37.801Z,2.93
2022-09-11T17:12:04.566Z,3.42
2022-09-11T17:14:31.181Z,3.53
2022-09-11T17:16:57.741Z,3.65
2022-09-11T17:19:24.515Z,2.88
2022-09-11T17:21:51.125Z,3.00
2022-09-11T17:24:21.606Z,2.90
2022-09-11T17:26:50.672Z,3.25
2022-09-11T17:29:19.448Z,3.17
2022-09-11T17:31:46.158Z,2.90
2022-09-11T17:34:12.870Z,2.87
2022-09-11T17:36:40.127Z,2.90
2022-09-11T17:39:07.377Z,3.30
2022-09-11T17:41:34.015Z,3.25
2022-09-11T17:44:00.604Z,3.00
2022-09-11T17:46:27.267Z,3.00
2022-09-11T17:48:53.918Z,2.85
2022-09-11T17:51:26.138Z,3.33
2022-09-11T17:53:58.502Z,3.80
2022-09-11T17:56:30.720Z,3.60
2022-09-11T17:58:59.565Z,3.70
2022-09-11T18:01:27.487Z,3.58
2022-09-11T18:03:56.941Z,4.32
2022-09-11T18:06:28.531Z,3.88
2022-09-11T18:09:01.947Z,4.25
2022-09-11T18:11:31.711Z,4.27
2022-09-11T18:14:00.251Z,4.50
2022-09-11T18:16:27.169Z,4.93
2022-09-11T18:18:54.488Z,5.10
2022-09-11T18:21:21.228Z,4.43
2022-09-11T18:23:49.683Z,4.17
2022-09-11T18:26:19.907Z,4.68
2022-09-11T18:28:46.982Z,4.95
2022-09-11T18:31:13.629Z,4.90
2022-09-11T18:33:40.387Z,4.53
2022-09-11T18:36:11.179Z,5.00
2022-09-11T18:38:37.717Z,4.50
2022-09-11T18:41:04.559Z,4.60
2022-09-11T18:43:31.058Z,4.88
2022-09-11T18:46:02.813Z,4.82
2022-09-11T18:48:29.503Z,5.00
2022-09-11T18:50:56.110Z,5.72
2022-09-11T18:53:23.292Z,5.22
2022-09-11T18:56:00.373Z,5.63
2022-09-11T18:58:31.577Z,5.72
2022-09-11T19:01:00.484Z,5.77
2022-09-11T19:03:30.305Z,5.50
2022-09-11T19:06:03.822Z,5.55
2022-09-11T19:08:31.851Z,5.68
2022-09-11T19:11:00.142Z,6.40
2022-09-11T19:13:26.976Z,6.33
2022-09-11T19:15:57.828Z,6.60
2022-09-11T19:18:25.221Z,7.40
2022-09-11T19:21:00.447Z,6.82
2022-09-11T19:23:31.584Z,7.22
2022-09-11T19:26:05.970Z,6.13
2022-09-11T19:28:35.585Z,6.15
2022-09-11T19:31:02.847Z,6.22
2022-09-11T19:33:30.526Z,6.18
2022-09-11T19:36:02.659Z,6.70
2022-09-11T19:38:36.718Z,6.87
2022-09-11T19:41:05.406Z,8.80
2022-09-11T19:43:34.429Z,6.60
2022-09-11T19:46:02.915Z,6.60
2022-09-11T19:48:30.691Z,7.68
2022-09-11T19:50:57.861Z,7.27
2022-09-11T19:53:24.458Z,7.60
2022-09-11T19:55:55.093Z,7.20
2022-09-11T19:58:24.029Z,7.10
2022-09-11T20:00:51.434Z,7.28
2022-09-11T20:03:19.024Z,7.27
2022-09-11T20:05:46.110Z,7.65
2022-09-11T20:08:16.170Z,7.63
2022-09-11T20:10:45.798Z,7.72
2022-09-11T20:13:12.886Z,8.68
2022-09-11T20:15:40.319Z,7.80
2022-09-11T20:18:07.880Z,7.50
2022-09-11T20:20:36.344Z,8.05
2022-09-11T20:23:03.718Z,7.68
2022-09-11T20:25:30.665Z,8.13
2022-09-11T20:28:00.427Z,8.73
2022-09-11T20:30:27.138Z,8.27
2022-09-11T20:32:53.877Z,9.35
2022-09-11T20:35:20.369Z,8.70
2022-09-11T20:37:46.907Z,8.25
2022-09-11T20:40:13.606Z,8.57
2022-09-11T20:42:40.165Z,8.48
2022-09-11T20:45:07.059Z,8.63
2022-09-11T20:47:33.660Z,9.15
2022-09-11T20:50:00.681Z,8.75
2022-09-11T20:52:27.560Z,8.00
2022-09-11T20:54:54.425Z,8.55
2022-09-11T20:57:21.034Z,9.38
2022-09-11T20:59:47.688Z,9.10
2022-09-11T21:02:14.822Z,8.85
2022-09-11T21:04:41.764Z,9.03
2022-09-11T21:07:08.464Z,8.80
2022-09-11T21:09:35.482Z,8.63
2022-09-11T21:12:02.257Z,11.02
2022-09-11T21:14:28.833Z,9.50
2022-09-11T21:16:55.405Z,10.03
2022-09-11T21:19:21.999Z,9.45
2022-09-11T21:21:48.645Z,11.05
2022-09-11T21:24:15.180Z,10.43
2022-09-11T21:26:42.465Z,9.93
2022-09-11T21:29:12.351Z,10.40
2022-09-11T21:31:38.893Z,10.30
2022-09-11T21:34:05.610Z,10.25
2022-09-11T21:36:33.551Z,9.98
2022-09-11T21:39:00.157Z,11.52
2022-09-11T21:41:26.692Z,10.83
2022-09-11T21:43:53.191Z,10.77
2022-09-11T21:46:20.182Z,10.38
2022-09-11T21:48:46.747Z,10.95
2022-09-11T21:51:16.305Z,11.73
2022-09-11T21:53:45.485Z,10.33
2022-09-11T21:56:24.942Z,11.25
2022-09-11T21:58:52.066Z,9.95
2022-09-11T22:01:20.328Z,11.65
2022-09-11T22:03:47.081Z,10.75
2022-09-11T22:06:14.045Z,10.23
2022-09-11T22:08:43.202Z,10.57
2022-09-11T22:11:11.045Z,10.80
2022-09-11T22:13:38.554Z,11.48
2022-09-11T22:16:11.159Z,10.93
2022-09-11T22:18:39.275Z,9.93
2022-09-11T22:21:07.001Z,10.52
2022-09-11T22:23:33.874Z,10.05
2022-09-11T22:26:04.976Z,10.38
2022-09-11T22:28:31.634Z,10.73
2022-09-11T22:30:58.422Z,9.63
2022-09-11T22:33:25.458Z,10.23
2022-09-11T22:35:52.035Z,9.27
2022-09-11T22:38:18.647Z,9.75
2022-09-11T22:40:45.146Z,10.20
2022-09-11T22:43:11.824Z,10.23
2022-09-11T22:45:38.409Z,9.23
2022-09-11T22:48:05.036Z,9.93
2022-09-11T22:50:33.302Z,10.38
2022-09-11T22:52:59.888Z,10.20
2022-09-11T22:55:26.463Z,10.43
2022-09-11T22:57:53.022Z,9.88
2022-09-11T23:00:19.794Z,10.52
2022-09-11T23:02:46.364Z,11.13
2022-09-11T23:05:31.598Z,10.10
2022-09-11T23:07:58.175Z,9.57
2022-09-11T23:10:25.616Z,10.70
2022-09-11T23:12:53.321Z,10.35
2022-09-11T23:15:19.858Z,10.32
2022-09-11T23:17:46.941Z,9.98
2022-09-11T23:20:13.844Z,9.70
2022-09-11T23:22:40.326Z,10.35
2022-09-11T23:25:07.226Z,11.77
2022-09-11T23:27:33.730Z,10.20
2022-09-11T23:30:00.294Z,10.52
2022-09-11T23:32:26.805Z,11.60
2022-09-11T23:34:53.373Z,10.20
2022-09-11T23:37:19.914Z,10.75
2022-09-11T23:39:46.835Z,10.70
2022-09-11T23:42:13.527Z,10.80
2022-09-11T23:44:40.094Z,10.13
2022-09-11T23:47:06.661Z,9.98
2022-09-11T23:49:36.358Z,10.10
2022-09-11T23:52:04.104Z,10.55
2022-09-11T23:54:30.634Z,11.10
2022-09-11T23:56:57.206Z,9.43
2022-09-11T23:59:23.712Z,11.07
